createdAt,value
2023-05-19T00:02:34.150Z,15.94
2023-05-19T00:05:45.888Z,15.99
2023-05-19T00:08:59.223Z,16.00
2023-05-19T00:12:04.550Z,15.94
2023-05-19T00:15:11.098Z,15.95
2023-05-19T00:18:17.656Z,15.84
2023-05-19T00:21:23.318Z,15.87
2023-05-19T00:24:28.733Z,15.82
2023-05-19T00:27:34.434Z,15.92
2023-05-19T00:30:39.981Z,15.90
2023-05-19T00:33:45.710Z,15.64
2023-05-19T00:36:52.101Z,15.68
2023-05-19T00:39:59.387Z,15.56
2023-05-19T00:43:05.946Z,15.63
2023-05-19T00:46:11.326Z,15.75
2023-05-19T00:49:17.017Z,15.60
2023-05-19T00:52:22.770Z,15.62
2023-05-19T00:55:32.160Z,15.52
2023-05-19T00:58:37.506Z,15.51
2023-05-19T01:01:43.471Z,15.58
2023-05-19T01:04:52.417Z,15.53
2023-05-19T01:07:57.394Z,15.55
2023-05-19T01:11:04.515Z,15.55
2023-05-19T01:14:09.745Z,15.54
2023-05-19T01:17:27.449Z,15.53
2023-05-19T01:20:46.766Z,15.54
2023-05-19T01:24:11.966Z,15.52
2023-05-19T01:27:45.055Z,15.45
2023-05-19T01:30:54.377Z,15.50
2023-05-19T01:34:01.131Z,15.50
2023-05-19T01:37:08.326Z,15.43
2023-05-19T01:40:14.181Z,15.44
2023-05-19T01:43:22.788Z,15.46
2023-05-19T01:46:28.979Z,15.41
2023-05-19T01:49:34.005Z,15.41
2023-05-19T01:52:39.498Z,15.34
2023-05-19T01:55:50.313Z,15.35
2023-05-19T01:59:09.939Z,15.29
2023-05-19T02:02:34.873Z,15.33
2023-05-19T02:05:59.712Z,15.32
2023-05-19T02:09:27.408Z,15.32
2023-05-19T02:12:36.407Z,15.27
2023-05-19T02:15:44.864Z,15.28
2023-05-19T02:18:52.270Z,15.23
2023-05-19T02:21:57.374Z,15.23
2023-05-19T02:25:04.693Z,15.24
2023-05-19T02:28:11.683Z,15.23
2023-05-19T02:31:17.049Z,15.27
2023-05-19T02:34:23.166Z,15.25
2023-05-19T02:37:29.515Z,15.29
2023-05-19T02:40:35.119Z,15.25
2023-05-19T02:43:41.030Z,15.28
2023-05-19T02:46:47.050Z,15.28
2023-05-19T02:49:53.005Z,15.25
2023-05-19T02:52:58.352Z,15.22
2023-05-19T02:56:04.660Z,15.21
2023-05-19T02:59:10.058Z,15.17
2023-05-19T03:02:15.711Z,15.23
2023-05-19T03:05:21.806Z,15.17
2023-05-19T03:08:27.475Z,15.14
2023-05-19T03:11:32.792Z,15.16
2023-05-19T03:14:38.912Z,15.16
2023-05-19T03:17:44.868Z,15.24
2023-05-19T03:20:50.723Z,15.18
2023-05-19T03:23:55.993Z,15.23
2023-05-19T03:27:02.928Z,15.18
2023-05-19T03:30:09.409Z,15.14
2023-05-19T03:33:28.378Z,15.11
2023-05-19T03:36:40.397Z,15.13
2023-05-19T03:39:51.632Z,15.14
2023-05-19T03:42:57.093Z,15.11
2023-05-19T03:46:02.943Z,15.10
2023-05-19T03:49:27.112Z,15.05
2023-05-19T03:52:38.903Z,15.06
2023-05-19T03:55:55.804Z,15.06
2023-05-19T03:59:00.926Z,15.06
2023-05-19T04:02:07.736Z,15.10
2023-05-19T04:05:16.867Z,15.09
2023-05-19T04:08:22.098Z,15.12
2023-05-19T04:11:27.733Z,15.08
2023-05-19T04:14:32.964Z,15.07
2023-05-19T04:17:38.684Z,15.17
2023-05-19T04:20:44.352Z,15.29
2023-05-19T04:23:49.910Z,15.22
2023-05-19T04:26:56.722Z,15.24
2023-05-19T04:30:04.186Z,15.16
2023-05-19T04:33:10.813Z,15.17
2023-05-19T04:36:18.670Z,15.19
2023-05-19T04:39:24.327Z,15.19
2023-05-19T04:42:33.337Z,15.14
2023-05-19T04:45:43.092Z,15.16
2023-05-19T04:48:51.152Z,15.16
2023-05-19T04:51:56.958Z,15.15
2023-05-19T04:55:07.902Z,15.15
2023-05-19T04:58:14.088Z,15.09
2023-05-19T05:01:22.642Z,15.21
2023-05-19T05:04:28.885Z,15.18
2023-05-19T05:07:34.690Z,15.12
2023-05-19T05:10:40.232Z,15.23
2023-05-19T05:13:45.670Z,15.24
2023-05-19T05:16:52.869Z,15.25
2023-05-19T05:20:04.908Z,15.32
2023-05-19T05:23:14.827Z,15.36
2023-05-19T05:26:24.897Z,15.24
2023-05-19T05:29:34.411Z,15.31
2023-05-19T05:32:42.966Z,15.37
2023-05-19T05:36:02.454Z,15.35
2023-05-19T05:39:07.629Z,15.37
2023-05-19T05:42:14.689Z,15.45
2023-05-19T05:45:19.897Z,15.40
2023-05-19T05:48:25.929Z,15.48
2023-05-19T05:51:33.142Z,15.45
2023-05-19T05:54:39.415Z,15.49
2023-05-19T05:57:45.442Z,15.60
2023-05-19T06:00:53.365Z,15.54
2023-05-19T06:03:58.909Z,15.62
2023-05-19T06:07:05.464Z,15.68
2023-05-19T06:10:14.057Z,15.69
2023-05-19T06:13:22.950Z,15.61
2023-05-19T06:16:29.189Z,15.63
2023-05-19T06:19:34.806Z,15.62
2023-05-19T06:22:41.744Z,15.70
2023-05-19T06:25:48.335Z,15.63
2023-05-19T06:28:53.936Z,15.77
2023-05-19T06:32:00.187Z,15.69
2023-05-19T06:35:06.189Z,15.73
2023-05-19T06:38:11.611Z,15.74
2023-05-19T06:41:17.411Z,15.85
2023-05-19T06:44:25.787Z,15.83
2023-05-19T06:47:31.487Z,15.88
2023-05-19T06:50:37.585Z,15.86
2023-05-19T06:53:43.512Z,15.92
2023-05-19T06:56:50.689Z,15.96
2023-05-19T06:59:56.206Z,16.00
2023-05-19T07:03:02.683Z,16.08
2023-05-19T07:06:08.552Z,16.13
2023-05-19T07:09:14.964Z,16.08
2023-05-19T07:12:21.208Z,16.09
2023-05-19T07:15:26.643Z,15.97
2023-05-19T07:18:32.272Z,15.96
2023-05-19T07:21:38.212Z,15.97
2023-05-19T07:24:43.833Z,15.87
2023-05-19T07:27:49.618Z,15.93
2023-05-19T07:30:55.247Z,15.96
2023-05-19T07:34:01.429Z,15.85
2023-05-19T07:37:07.384Z,15.88
2023-05-19T07:40:13.056Z,15.96
2023-05-19T07:43:18.728Z,15.70
2023-05-19T07:46:24.259Z,15.74
2023-05-19T07:49:29.995Z,15.75
2023-05-19T07:52:35.477Z,15.71
2023-05-19T07:55:41.397Z,15.63
2023-05-19T07:58:47.221Z,15.77
2023-05-19T08:01:53.043Z,15.70
2023-05-19T08:04:58.848Z,15.67
2023-05-19T08:08:04.622Z,15.65
2023-05-19T08:11:10.313Z,15.73
2023-05-19T08:14:16.181Z,15.75
2023-05-19T08:17:21.250Z,15.69
2023-05-19T08:20:26.598Z,15.83
2023-05-19T08:23:32.367Z,15.83
2023-05-19T08:26:38.261Z,15.96
2023-05-19T08:29:43.854Z,16.07
2023-05-19T08:32:49.713Z,16.04
2023-05-19T08:35:58.464Z,16.17
2023-05-19T08:39:04.695Z,16.29
2023-05-19T08:42:10.433Z,16.14
2023-05-19T08:45:16.376Z,16.16
2023-05-19T08:48:22.794Z,16.22
2023-05-19T08:51:39.540Z,16.16
2023-05-19T08:55:01.488Z,16.21
2023-05-19T08:58:07.590Z,16.19
2023-05-19T09:01:19.318Z,16.23
2023-05-19T09:04:29.788Z,16.19
2023-05-19T09:07:38.198Z,16.22
2023-05-19T09:10:43.595Z,16.25
2023-05-19T09:13:49.848Z,16.36
2023-05-19T09:16:56.122Z,16.48
2023-05-19T09:20:11.549Z,16.50
2023-05-19T09:23:17.869Z,16.53
2023-05-19T09:26:23.931Z,16.61
2023-05-19T09:29:29.418Z,16.61
2023-05-19T09:32:36.148Z,16.84
2023-05-19T09:35:47.157Z,16.90
2023-05-19T09:38:52.438Z,16.89
2023-05-19T09:42:00.157Z,16.93
2023-05-19T09:45:07.163Z,17.11
2023-05-19T09:48:12.983Z,16.96
2023-05-19T09:51:18.360Z,17.10
2023-05-19T09:54:25.448Z,17.21
2023-05-19T09:57:37.982Z,17.03
2023-05-19T10:00:43.545Z,16.93
2023-05-19T10:03:49.416Z,16.83
2023-05-19T10:06:56.147Z,16.95
2023-05-19T10:10:01.740Z,16.89
2023-05-19T10:13:08.106Z,16.84
2023-05-19T10:16:17.030Z,16.93
2023-05-19T10:19:27.708Z,16.95
2023-05-19T10:22:34.004Z,17.03
2023-05-19T10:25:41.079Z,17.04
2023-05-19T10:28:46.412Z,16.81
2023-05-19T10:31:54.645Z,16.85
2023-05-19T10:35:24.782Z,16.94
2023-05-19T10:38:33.670Z,16.86
2023-05-19T10:41:52.022Z,16.92
2023-05-19T10:45:24.290Z,16.80
2023-05-19T10:48:35.450Z,17.04
2023-05-19T10:51:40.705Z,16.96
2023-05-19T10:54:46.594Z,17.12
2023-05-19T10:57:58.535Z,17.11
2023-05-19T11:01:08.667Z,17.00
2023-05-19T11:04:16.181Z,16.97
2023-05-19T11:07:22.592Z,17.02
2023-05-19T11:10:28.166Z,17.17
2023-05-19T11:13:34.170Z,17.05
2023-05-19T11:16:42.048Z,16.95
2023-05-19T11:19:55.889Z,17.00
2023-05-19T11:23:20.400Z,16.91
2023-05-19T11:26:42.939Z,16.90
2023-05-19T11:29:49.258Z,16.82
2023-05-19T11:32:54.578Z,16.72
2023-05-19T11:36:00.138Z,16.64
2023-05-19T11:39:06.752Z,16.61
2023-05-19T11:42:12.141Z,16.56
2023-05-19T11:45:17.672Z,16.59
2023-05-19T11:48:23.825Z,16.64
2023-05-19T11:51:29.628Z,16.60
2023-05-19T11:54:36.903Z,16.67
2023-05-19T11:57:47.047Z,16.60
2023-05-19T12:01:04.982Z,16.73
2023-05-19T12:04:10.655Z,16.52
2023-05-19T12:07:26.218Z,16.63
2023-05-19T12:10:34.074Z,16.59
2023-05-19T12:13:39.609Z,16.71
2023-05-19T12:16:44.773Z,16.81
2023-05-19T12:19:50.634Z,16.60
2023-05-19T12:22:56.718Z,16.75
2023-05-19T12:26:02.932Z,16.73
2023-05-19T12:29:08.465Z,16.67
2023-05-19T12:32:14.039Z,16.66
2023-05-19T12:35:20.818Z,16.72
2023-05-19T12:38:26.298Z,16.69
2023-05-19T12:41:32.484Z,16.64
2023-05-19T12:44:39.807Z,16.40
2023-05-19T12:47:49.458Z,16.38
2023-05-19T12:50:55.961Z,16.25
2023-05-19T12:54:05.093Z,16.24
2023-05-19T12:57:11.742Z,16.23
2023-05-19T13:00:23.116Z,16.37
2023-05-19T13:03:28.867Z,16.20
2023-05-19T13:06:36.378Z,16.27
2023-05-19T13:09:42.464Z,16.18
2023-05-19T13:12:47.738Z,16.23
2023-05-19T13:15:54.021Z,16.21
2023-05-19T13:18:59.803Z,16.16
2023-05-19T13:22:05.358Z,16.14
2023-05-19T13:25:11.251Z,16.19
2023-05-19T13:28:16.480Z,16.23
2023-05-19T13:31:23.771Z,15.98
2023-05-19T13:34:28.959Z,15.92
2023-05-19T13:37:35.150Z,15.88
2023-05-19T13:40:40.802Z,15.76
2023-05-19T13:43:46.572Z,15.74
2023-05-19T13:46:52.439Z,15.52
2023-05-19T13:49:58.095Z,15.63
2023-05-19T13:53:04.109Z,15.61
2023-05-19T13:56:09.605Z,15.74
2023-05-19T13:59:17.449Z,15.64
2023-05-19T14:02:22.821Z,15.58
2023-05-19T14:05:29.346Z,15.60
2023-05-19T14:08:35.073Z,15.57
2023-05-19T14:11:41.124Z,15.63
2023-05-19T14:14:48.625Z,15.68
2023-05-19T14:17:54.116Z,15.77
2023-05-19T14:20:59.715Z,15.82
2023-05-19T14:24:05.553Z,15.81
2023-05-19T14:27:11.161Z,15.86
2023-05-19T14:30:16.433Z,15.86
2023-05-19T14:33:22.049Z,15.72
2023-05-19T14:36:27.362Z,15.79
2023-05-19T14:39:32.732Z,15.80
2023-05-19T14:42:38.455Z,15.84
2023-05-19T14:45:45.121Z,15.60
2023-05-19T14:48:50.397Z,15.60
2023-05-19T14:51:56.470Z,15.71
2023-05-19T14:55:01.752Z,15.65
2023-05-19T14:58:13.018Z,15.60
2023-05-19T15:01:32.692Z,15.67
2023-05-19T15:04:37.928Z,15.78
2023-05-19T15:07:43.473Z,15.71
2023-05-19T15:10:50.643Z,15.55
2023-05-19T15:13:56.168Z,15.50
2023-05-19T15:17:02.304Z,15.38
2023-05-19T15:20:08.097Z,15.21
2023-05-19T15:23:13.472Z,15.09
2023-05-19T15:26:19.123Z,15.12
2023-05-19T15:29:24.792Z,15.23
2023-05-19T15:32:30.988Z,15.22
2023-05-19T15:35:36.264Z,15.34
2023-05-19T15:38:42.125Z,15.24
2023-05-19T15:41:47.473Z,15.05
2023-05-19T15:44:52.961Z,15.12
2023-05-19T15:47:58.660Z,15.13
2023-05-19T15:51:04.952Z,14.97
2023-05-19T15:54:11.082Z,14.83
2023-05-19T15:57:16.629Z,14.91
2023-05-19T16:00:22.600Z,15.04
2023-05-19T16:03:28.260Z,14.90
2023-05-19T16:06:33.779Z,14.86
2023-05-19T16:09:39.179Z,14.87
2023-05-19T16:12:44.987Z,14.98
2023-05-19T16:15:51.229Z,14.90
2023-05-19T16:18:57.035Z,14.84
2023-05-19T16:22:03.146Z,14.84
2023-05-19T16:25:09.095Z,14.80
2023-05-19T16:28:14.935Z,14.85
2023-05-19T16:31:20.501Z,14.79
2023-05-19T16:34:26.700Z,14.72
2023-05-19T16:37:33.731Z,14.81
2023-05-19T16:40:39.470Z,14.74
2023-05-19T16:43:44.992Z,14.84
2023-05-19T16:46:50.728Z,14.85
2023-05-19T16:49:56.708Z,14.84
2023-05-19T16:53:02.319Z,14.88
2023-05-19T16:56:08.584Z,14.91
2023-05-19T16:59:14.114Z,14.89
2023-05-19T17:02:19.233Z,14.78
2023-05-19T17:05:24.820Z,14.75
2023-05-19T17:08:30.729Z,14.82
2023-05-19T17:11:36.412Z,14.76
2023-05-19T17:14:43.800Z,14.81
2023-05-19T17:17:49.583Z,14.86
2023-05-19T17:20:55.293Z,14.91
2023-05-19T17:24:01.332Z,14.82
2023-05-19T17:27:06.866Z,14.87
2023-05-19T17:30:14.245Z,14.87
2023-05-19T17:33:19.752Z,14.84
2023-05-19T17:36:25.393Z,14.66
2023-05-19T17:39:30.948Z,14.79
2023-05-19T17:42:36.541Z,14.86
2023-05-19T17:45:42.476Z,14.82
2023-05-19T17:48:48.374Z,14.87
2023-05-19T17:51:54.308Z,14.85
2023-05-19T17:55:00.148Z,14.86
2023-05-19T17:58:06.152Z,14.83
2023-05-19T18:01:11.447Z,14.85
2023-05-19T18:04:17.580Z,14.87
2023-05-19T18:07:26.220Z,14.84
2023-05-19T18:10:36.414Z,14.85
2023-05-19T18:13:42.847Z,14.76
2023-05-19T18:16:50.236Z,14.75
2023-05-19T18:19:56.270Z,14.82
2023-05-19T18:23:01.972Z,14.80
2023-05-19T18:26:07.731Z,14.78
2023-05-19T18:29:15.053Z,14.80
2023-05-19T18:32:21.063Z,14.74
2023-05-19T18:35:27.072Z,14.78
2023-05-19T18:38:32.363Z,14.78
2023-05-19T18:41:41.625Z,14.72
2023-05-19T18:44:48.172Z,14.80
2023-05-19T18:47:54.307Z,14.79
2023-05-19T18:51:00.208Z,14.57
2023-05-19T18:54:07.492Z,14.49
2023-05-19T18:57:14.582Z,14.42
2023-05-19T19:00:20.382Z,14.42
2023-05-19T19:03:26.070Z,14.35
2023-05-19T19:06:31.569Z,14.46
2023-05-19T19:09:37.152Z,14.51
2023-05-19T19:12:42.371Z,14.60
2023-05-19T19:15:47.894Z,14.58
2023-05-19T19:18:53.768Z,14.66
2023-05-19T19:21:59.290Z,14.66
2023-05-19T19:25:05.421Z,14.67
2023-05-19T19:28:12.981Z,14.67
2023-05-19T19:31:19.182Z,14.72
2023-05-19T19:34:25.507Z,14.67
2023-05-19T19:37:30.636Z,14.73
2023-05-19T19:40:36.544Z,14.73
2023-05-19T19:43:42.545Z,14.75
2023-05-19T19:46:48.288Z,14.68
2023-05-19T19:49:54.421Z,14.79
2023-05-19T19:53:00.906Z,14.72
2023-05-19T19:56:07.540Z,14.76
2023-05-19T19:59:13.330Z,14.75
2023-05-19T20:02:18.714Z,14.70
2023-05-19T20:05:24.508Z,14.64
2023-05-19T20:08:30.043Z,14.70
2023-05-19T20:11:35.926Z,14.69
2023-05-19T20:14:41.652Z,14.69
2023-05-19T20:17:47.336Z,14.65
2023-05-19T20:20:52.569Z,14.60
2023-05-19T20:23:58.261Z,14.61
2023-05-19T20:27:03.777Z,14.57
2023-05-19T20:30:09.796Z,14.53
2023-05-19T20:33:15.069Z,14.49
2023-05-19T20:36:21.278Z,14.50
2023-05-19T20:39:27.206Z,14.53
2023-05-19T20:42:32.812Z,14.48
2023-05-19T20:45:38.669Z,14.43
2023-05-19T20:48:44.967Z,14.49
2023-05-19T20:51:50.198Z,14.55
2023-05-19T20:54:55.906Z,14.52
2023-05-19T20:58:01.550Z,14.57
2023-05-19T21:01:07.020Z,14.63
2023-05-19T21:04:12.134Z,14.57
2023-05-19T21:07:17.596Z,14.62
2023-05-19T21:10:22.963Z,14.61
2023-05-19T21:13:28.579Z,14.55
2023-05-19T21:16:34.452Z,14.67
2023-05-19T21:19:39.868Z,14.68
2023-05-19T21:22:45.516Z,14.61
2023-05-19T21:25:51.080Z,14.64
2023-05-19T21:28:56.523Z,14.57
2023-05-19T21:32:02.288Z,14.56
2023-05-19T21:35:07.767Z,14.55
2023-05-19T21:38:23.547Z,14.53
2023-05-19T21:41:32.590Z,14.65
2023-05-19T21:44:38.030Z,14.61
2023-05-19T21:47:43.663Z,14.62
2023-05-19T21:50:54.209Z,14.62
2023-05-19T21:53:59.763Z,14.60
2023-05-19T21:57:05.802Z,14.63
2023-05-19T22:00:13.469Z,14.64
2023-05-19T22:03:19.727Z,14.55
2023-05-19T22:06:25.075Z,14.56
2023-05-19T22:09:30.534Z,14.47
2023-05-19T22:12:37.399Z,14.49
2023-05-19T22:15:43.262Z,14.52
2023-05-19T22:18:49.170Z,14.58
2023-05-19T22:22:01.879Z,14.61
2023-05-19T22:25:12.160Z,14.64
2023-05-19T22:28:17.421Z,14.62
2023-05-19T22:31:22.849Z,14.67
2023-05-19T22:34:28.196Z,14.66
2023-05-19T22:37:33.572Z,14.73
2023-05-19T22:40:39.342Z,14.70
2023-05-19T22:43:44.713Z,14.69
2023-05-19T22:46:50.235Z,14.70
2023-05-19T22:49:57.138Z,14.72
2023-05-19T22:53:03.016Z,14.69
2023-05-19T22:56:09.219Z,14.72
2023-05-19T22:59:18.129Z,14.76
2023-05-19T23:02:23.592Z,14.81
2023-05-19T23:05:29.667Z,14.86
2023-05-19T23:08:35.238Z,14.86
2023-05-19T23:11:40.676Z,14.91
2023-05-19T23:14:47.163Z,14.89
2023-05-19T23:17:52.886Z,14.88
2023-05-19T23:20:58.388Z,14.87
2023-05-19T23:24:04.934Z,14.84
2023-05-19T23:27:10.431Z,14.86
2023-05-19T23:30:16.178Z,14.83
2023-05-19T23:33:21.847Z,14.80
2023-05-19T23:36:27.439Z,14.84
2023-05-19T23:39:33.043Z,14.84
2023-05-19T23:42:38.660Z,14.83
2023-05-19T23:45:44.496Z,14.85
2023-05-19T23:48:49.904Z,14.83
2023-05-19T23:51:55.140Z,14.82
2023-05-19T23:55:00.616Z,14.86
2023-05-19T23:58:05.891Z,14.83
